Tiempo atmosférico en la estación meteorológica de Cervantes, Lugo (1020 m.)



Fecha
DESCASC
Temp. máxima en grados centígrados (hora)
DESCASC
Temp. mínima en grados centígrados (hora)
DESCASC
Temp. media en grados centígrados
DESCASC
Racha de viento máxima en m/sg (hora)
DESCASC
Velocidad máxima media en intervalos de 10 minutos(hora)
DESCASC
Precipitaciones diarias en mm
DESCASC
Precipitaciones de 00:00 a 06:00 en mm
DESCASC
Precipitaciones de 06:00 a 12:00 en mm
DESCASC
Precipitaciones de 12:00 a 18:00 en mm
DESCASC
Precipitaciones de 18:00 a 24:00 en mm
DESCASC
29-03-2020 13.1 (16:30) 3 (06:20) 8.1 7.22 (16:30) 3.61 (16:40) 0 0 0 0 0
28-03-2020 15.1 (15:00) 3.4 (06:10) 9.3 8.33 (09:30) 3.89 (10:50) 0 0 0 0 0
27-03-2020 11.1 (17:10) -1.6 (05:00) 4.8 15 (15:00) 8.89 (15:00) 0 0 0 0 0
26-03-2020 11.7 (15:40) 0.1 (00:00) 5.9 8.33 (14:40) 4.17 (14:40) 0 0 0 0 0
25-03-2020 16 (13:40) 5.6 (00:00) 10.8 6.94 (15:20) 3.61 (23:10) 0 0 0 0 0
24-03-2020 17.8 (18:00) 4.9 (00:00) 11.3 13.89 (09:40) 8.06 (08:10) 0 0 0 0 0
23-03-2020 14.9 (15:30) 1.7 (00:00) 8.3 6.94 (17:50) 3.61 (17:50) 0 0 0 0 0
22-03-2020 11.9 (17:10) 5 (07:00) 8.4 6.94 (17:50) 3.33 (17:40) 0 0 0 0 0
21-03-2020 13.6 (16:10) 6.9 (00:00) 10.3 12.22 (06:10) 7.78 (12:40) 0.8 0 0 0 0.8
20-03-2020 11.6 (14:00) 6.8 (00:00) 9.2 10 (16:10) 5 (16:20) 2 0 1 0.8 0.2
19-03-2020 18.2 (15:00) 8.4 (00:00) 13.3 9.72 (11:40) 5.28 (10:40) 0 0 0 0 0
18-03-2020 20 (15:50) 8.5 (00:00) 14.3 11.39 (01:10) 6.67 (00:40) 0 0 0 0 0
17-03-2020 15.4 (16:50) -0.3 (00:00) 7.5 9.72 (21:20) 6.39 (21:10) 0 0 0 0 0
16-03-2020 3.6 (17:20) -0.9 (-00:0) 1.3 13.33 (13:40) 5 (15:40) 6.4 2.6 2.6 1 0.2
15-03-2020 10.7 (10:00) -0.7 (-00:0) 5 8.61 (11:10) 4.72 (15:30) 11.2 0 0 7.6 3.6
14-03-2020 16.4 (15:30) -0.2 (00:00) 8.1 4.72 (13:10) 3.33 (19:40) 0 0 0 0 0
13-03-2020 10 (17:00) 3.2 (23:59) 6.6 5.28 (16:20) 2.78 (16:30) 0 0 0 0 0
12-03-2020 11.4 (15:20) 4.6 (00:00) 8 6.39 (15:10) 3.06 (19:30) 0 0 0 0 0
11-03-2020 21.1 (15:40) 8.7 (00:00) 14.9 7.22 (13:50) 4.17 (12:40) 0 0 0 0 0
10-03-2020 18.5 (16:00) 6.8 (00:00) 12.7 8.89 (14:50) 4.17 (14:50) 0 0 0 0 0
09-03-2020 11.9 (16:50) 2.7 (00:00) 7.3 6.11 (02:10) 3.06 (02:10) 0 0 0 0 0
08-03-2020 10.3 (17:20) 2.8 (00:00) 6.6 10.28 (16:00) 4.17 (18:10) 0.8 0 0.8 0 0
07-03-2020 12.1 (17:10) 2.9 (00:00) 7.5 5 (03:50) 2.22 (07:20) 0.6 0.6 0 0 0
06-03-2020 4.4 (17:10) 0.5 (00:00) 2.5 12.5 (00:10) 5 (00:20) 12.6 8.4 1.8 1.2 1.2
05-03-2020 10.1 (00:00) 2.3 (00:00) 6.2 15 (04:00) 5.56 (09:00) 30 13 6.2 6.6 4.2
04-03-2020 11.3 (14:10) 7.8 (00:00) 9.6 11.94 (07:10) 4.72 (14:20) 2.8 0.6 0.2 0.6 1.4
03-03-2020 9.8 (12:30) 3 (00:00) 6.4 18.33 (09:40) 8.06 (09:30) 19 7.8 6.6 0 4.6
02-03-2020 9.3 (02:00) -0.4 (00:00) 4.5 22.22 (02:20) 10 (02:20) 27.2 18.2 6.2 2.4 0.4
01-03-2020 9.4 (23:50) 4 (00:00) 6.7 25.28 (05:50) 8.06 (23:10) 21 3.4 0 0 17.6
29-02-2020 8.6 (00:00) 3.9 (00:00) 6.3 16.67 (05:00) 7.5 (05:00) 13.4 6.6 5.2 1.2 0.4

Gráficas

Temp. máximas Temp. mínimas Temp. medias Precipitaciones Rachas de viento máximas Velocidades máximas media en intervalos de 10 minutos

Datos horarios

Fecha y hora oficial Temperatura (ºC) Velocidad del viento (km/h) Dirección del viento Racha (km/h) Dirección de racha Precipitación (mm) Presión (hPa) Tendencia (hPa) Humedad (%)
2020-03-29 23:00:00 4 9 Norte 20 Norte 0 -- -- 78
2020-03-29 22:00:00 4.8 9 Norte 16 Norte 0 -- -- 72
2020-03-29 21:00:00 5.6 9 Norte 18 Norte 0 -- -- 70
2020-03-29 20:00:00 7.2 9 Norte 24 Norte 0 -- -- 66
2020-03-29 19:00:00 9.6 12 Norte 26 Nordeste 0 -- -- 58
2020-03-29 18:00:00 11.7 10 Norte 26 Nordeste 0 -- -- 50
2020-03-29 17:00:00 12.4 11 Nordeste 26 Nordeste 0 -- -- 50
2020-03-29 16:00:00 12.6 10 Nordeste 23 Nordeste 0 -- -- 51
2020-03-29 15:00:00 11.9 9 Nordeste 21 Nordeste 0 -- -- 56
2020-03-29 14:00:00 11.1 7 Nordeste 15 Nordeste 0 -- -- 56
2020-03-29 13:00:00 9.4 4 Sur 13 Sur 0 -- -- 67
2020-03-29 12:00:00 6.4 4 Sur 8 Sur 0 -- -- 77
2020-03-29 11:00:00 6.7 3 Sur 6 Sur 0 -- -- 70
2020-03-29 10:00:00 7.5 0 Calma 6 Sur 0 -- -- 65
2020-03-29 09:00:00 4.5 3 Sur 6 Sudeste 0 -- -- 65
2020-03-29 08:00:00 4.3 3 Sudeste 5 Sudeste 0 -- -- 67
2020-03-29 07:00:00 4.9 0 Calma 4 Norte 0 -- -- 72
2020-03-29 06:00:00 3.6 0 Calma 4 Noroeste 0 -- -- 82
2020-03-29 05:00:00 3.2 0 Calma 2 Noroeste 0 -- -- 86
2020-03-29 03:00:00 3.9 0 Calma 4 Noroeste 0 -- -- 79
2020-03-29 01:00:00 4.3 0 Calma 4 Norte 0 -- -- 77
2020-03-29 00:00:00 4.9 0 Calma 5 Noroeste 0 -- -- 73
2020-03-28 23:00:00 5.2 3 Oeste 8 Noroeste 0 -- -- 71
2020-03-28 22:00:00 6.7 0 Calma 5 Norte 0 -- -- 64
2020-03-28 21:00:00 7.5 3 Norte 13 Nordeste 0 -- -- 60
2020-03-28 20:00:00 7.9 6 Norte 18 Nordeste 0 -- -- 58
2020-03-28 19:00:00 10 8 Norte 20 Nordeste 0 -- -- 46
2020-03-28 18:00:00 11.7 7 Norte 18 Nordeste 0 -- -- 41
2020-03-28 17:00:00 13.4 7 Nordeste 23 Nordeste 0 -- -- 32
2020-03-28 16:00:00 14.6 4 Este 13 Este 0 -- -- 23
2020-03-28 15:00:00 15.1 5 Este 18 Nordeste 0 -- -- 22
2020-03-28 14:00:00 14 5 Nordeste 17 Este 0 -- -- 26
2020-03-28 13:00:00 12.9 8 Nordeste 24 Sur 0 -- -- 27
2020-03-28 12:00:00 13.1 8 Sur 22 Sur 0 -- -- 27
2020-03-28 11:00:00 12.1 11 Sur 22 Sur 0 -- -- 30
2020-03-28 10:00:00 10.4 11 Sur 30 Sur 0 -- -- 34
2020-03-28 09:00:00 8.1 8 Sur 17 Sur 0 -- -- 39
2020-03-28 08:00:00 4.7 8 Sur 18 Sur 0 -- -- 45
2020-03-28 07:00:00 4.2 6 Sur 17 Sudoeste 0 -- -- 47
2020-03-28 06:00:00 3.6 3 Sudeste 17 Sur 0 -- -- 48
2020-03-28 05:00:00 3.9 8 Sur 17 Sudoeste 0 -- -- 47
2020-03-28 04:00:00 4.1 8 Sur 19 Sur 0 -- -- 45
2020-03-28 03:00:00 4.5 7 Sudoeste 14 Sur 0 -- -- 42
2020-03-28 02:00:00 4.5 4 Sudoeste 12 Sur 0 -- -- 42
2020-03-28 01:00:00 5.1 7 Sudoeste 15 Sudoeste 0 -- -- 39
2020-03-28 00:00:00 5.4 7 Sudoeste 15 Sur 0 -- -- 38
2020-03-27 23:00:00 5.9 6 Sudoeste 31 Sur 0 -- -- 39
2020-03-27 22:00:00 6.5 17 Sur 31 Sur 0 -- -- 37
2020-03-27 21:00:00 6.8 18 Sur 30 Sur 0 -- -- 34
2020-03-27 20:00:00 7.1 10 Sur 27 Sur 0 -- -- 31
2020-03-27 19:00:00 7.8 9 Sur 29 Sur 0 -- -- 29
2020-03-27 18:00:00 10.3 16 Sur 36 Sudoeste 0 -- -- 24
2020-03-27 17:00:00 11 23 Sur 45 Sur 0 -- -- 21
2020-03-27 16:00:00 10.7 22 Sur 47 Sur 0 -- -- 22
2020-03-27 15:00:00 9.8 32 Sur 54 Sur 0 -- -- 25
2020-03-27 14:00:00 9.4 23 Sur 43 Sudoeste 0 -- -- 29
2020-03-27 13:00:00 8.2 24 Sur 42 Sur 0 -- -- 31
2020-03-27 12:00:00 7.1 23 Sur 41 Sur 0 -- -- 35
2020-03-27 11:00:00 5.4 22 Sur 42 Sur 0 -- -- 38
2020-03-27 10:00:00 3.7 18 Sur 42 Sur 0 -- -- 50
2020-03-27 09:00:00 2.3 20 Sur 37 Sur 0 -- -- 58
2020-03-27 08:00:00 0.1 21 Sur 41 Sur 0 -- -- 65
2020-03-27 07:00:00 0.3 15 Sudoeste 33 Sur 0 -- -- 58
2020-03-27 06:00:00 -0.7 4 Noroeste 7 Norte 0 -- -- 65
2020-03-27 05:00:00 -1.6 2 Noroeste 5 Noroeste 0 -- -- 79
2020-03-27 04:00:00 -1.2 0 Calma 3 Nordeste 0 -- -- 77
2020-03-27 03:00:00 -1.1 0 Calma 5 Norte 0 -- -- 77
2020-03-27 02:00:00 -0.6 0 Calma 5 Noroeste 0 -- -- 77
2020-03-27 01:00:00 -0.3 5 Norte 9 Norte 0 -- -- 79
2020-03-27 00:00:00 0.6 4 Noroeste 10 Oeste 0 -- -- 76
2020-03-26 23:00:00 1.1 2 Norte 14 Nordeste 0 -- -- 77
2020-03-26 22:00:00 2.2 5 Nordeste 16 Norte 0 -- -- 75
2020-03-26 21:00:00 3.6 9 Norte 19 Norte 0 -- -- 69
2020-03-26 20:00:00 4.7 12 Norte 19 Norte 0 -- -- 70
2020-03-26 19:00:00 6.5 9 Norte 17 Norte 0 -- -- 62
2020-03-26 18:00:00 10.7 8 Nordeste 21 Nordeste 0 -- -- 42
2020-03-26 17:00:00 11.5 9 Nordeste 21 Nordeste 0 -- -- 39
2020-03-26 16:00:00 11.5 10 Norte 27 Norte 0 -- -- 39
2020-03-26 15:00:00 10.8 13 Nordeste 30 Nordeste 0 -- -- 42
2020-03-26 14:00:00 9.1 13 Norte 23 Este 0 -- -- 49
2020-03-26 13:00:00 9.9 9 Nordeste 23 Norte 0 -- -- 40
2020-03-26 12:00:00 8.1 9 Norte 21 Norte 0 -- -- 33
2020-03-26 11:00:00 7.8 7 Nordeste 18 Nordeste 0 -- -- 25
2020-03-26 10:00:00 6.3 5 Sur 8 Sur 0 -- -- 63
2020-03-26 09:00:00 5.3 0 Calma 5 Sur 0 -- -- 63
2020-03-26 08:00:00 3.3 2 Este 6 Nordeste 0 -- -- 33
2020-03-26 07:00:00 3.4 4 Norte 13 Nordeste 0 -- -- 50
2020-03-26 06:00:00 0.8 0 Calma 8 Oeste 0 -- -- 66
2020-03-26 05:00:00 1.2 0 Calma 11 Norte 0 -- -- 74
2020-03-26 04:00:00 2.1 3 Noroeste 6 Norte 0 -- -- 42
2020-03-26 03:00:00 2.6 0 Calma 8 Norte 0 -- -- 66
2020-03-26 02:00:00 4.6 4 Norte 17 Norte 0 -- -- 37
2020-03-26 01:00:00 5.7 10 Norte 18 Norte 0 -- -- 41
2020-03-26 00:00:00 6.1 9 Norte 17 Norte 0 -- -- 56
2020-03-25 23:00:00 5.7 12 Norte 18 Norte 0 -- -- 62
2020-03-25 22:00:00 7.2 10 Norte 15 Norte 0 -- -- 54
2020-03-25 21:00:00 7.8 9 Norte 18 Norte 0 -- -- 60
2020-03-25 20:00:00 9.2 10 Norte 15 Norte 0 -- -- 49
2020-03-25 19:00:00 11.1 7 Norte 13 Noroeste 0 -- -- 47
2020-03-25 18:00:00 13.6 6 Norte 21 Nordeste 0 -- -- 41
2020-03-25 17:00:00 14.2 10 Nordeste 23 Nordeste 0 -- -- 45
2020-03-25 16:00:00 15.5 7 Este 25 Noroeste 0 -- -- 37
2020-03-25 15:00:00 14.8 8 Norte 24 Nordeste 0 -- -- 45
2020-03-25 14:00:00 14.9 8 Este 25 Nordeste 0 -- -- 42
2020-03-25 13:00:00 14.5 6 Este 21 Este 0 -- -- 47
2020-03-25 12:00:00 14.4 6 Este 22 Nordeste 0 -- -- 46
2020-03-25 11:00:00 13.5 6 Nordeste 21 Norte 0 -- -- 52
2020-03-25 10:00:00 12.6 6 Este 17 Nordeste 0 -- -- 57
2020-03-25 09:00:00 12.1 2 Sur 15 Norte 0 -- -- 55
2020-03-25 08:00:00 8.9 8 Noroeste 18 Noroeste 0 -- -- 72
2020-03-25 07:00:00 8.4 6 Norte 10 Norte 0 -- -- 61
2020-03-25 06:00:00 8.2 0 Calma 5 Norte 0 -- -- 62
2020-03-25 05:00:00 8.4 2 Este 8 Noroeste 0 -- -- 58
2020-03-25 04:00:00 8.8 5 Norte 8 Norte 0 -- -- 57
2020-03-25 03:00:00 9 3 Sudoeste 13 Noroeste 0 -- -- 57
2020-03-25 02:00:00 9.9 5 Norte 9 Noroeste 0 -- -- 53
2020-03-25 01:00:00 9.5 5 Noroeste 8 Noroeste 0 -- -- 55
2020-03-25 00:00:00 9.1 3 Noroeste 6 Norte 0 -- -- 76
2020-03-24 23:00:00 9.2 0 Calma 6 Norte 0 -- -- 76
2020-03-24 22:00:00 9.4 0 Calma 6 Norte 0 -- -- 74
2020-03-24 21:00:00 9.6 3 Norte 19 Norte 0 -- -- 74
2020-03-24 20:00:00 11.1 10 Norte 18 Norte 0 -- -- 68
2020-03-24 19:00:00 12.4 5 Noroeste 12 Sudoeste 0 -- -- 49
2020-03-24 18:00:00 17.8 5 Sudoeste 18 Oeste 0 -- -- 33
2020-03-24 17:00:00 16.1 10 Sur 23 Sur 0 -- -- 37
2020-03-24 16:00:00 15.1 15 Sur 31 Sur 0 -- -- 42
2020-03-24 15:00:00 14.7 14 Sur 30 Sur 0 -- -- 43
2020-03-24 14:00:00 13.6 19 Sur 38 Sudeste 0 -- -- 49
2020-03-24 13:00:00 13.2 19 Sur 37 Sur 0 -- -- 52
2020-03-24 12:00:00 12 13 Sur 42 Sur 0 -- -- 57
2020-03-24 11:00:00 11.1 22 Sur 44 Sur 0 -- -- 59
2020-03-24 10:00:00 10.2 23 Sur 50 Sur 0 -- -- 61
2020-03-24 09:00:00 8.9 24 Sur 44 Sur 0 -- -- 67
2020-03-24 08:00:00 7 25 Sur 44 Sur 0 -- -- 76
2020-03-24 07:00:00 6.8 22 Sur 37 Sur 0 -- -- 78
2020-03-24 06:00:00 6.7 8 Sur 36 Sur 0 -- -- 78
2020-03-24 05:00:00 7 20 Sur 36 Sur 0 -- -- 77
2020-03-24 04:00:00 7.2 20 Sur 37 Sur 0 -- -- 75
2020-03-24 03:00:00 7.7 22 Sur 36 Sur 0 -- -- 73
2020-03-24 02:00:00 7.8 17 Sur 31 Sur 0 -- -- 73
2020-03-24 01:00:00 7.8 13 Sur 22 Sur 0 -- -- 72
2020-03-24 00:00:00 5 0 Calma 6 Oeste 0 -- -- 89
2020-03-23 23:00:00 6.2 2 Noroeste 5 Noroeste 0 -- -- 88
2020-03-23 22:00:00 6.8 2 Sur 4 Sur 0 -- -- 87
2020-03-23 21:00:00 7.2 0 Calma 11 Norte 0 -- -- 85
2020-03-23 20:00:00 7.4 5 Norte 16 Norte 0 -- -- 84
2020-03-23 19:00:00 9.4 4 Nordeste 18 Nordeste 0 -- -- 75
2020-03-23 18:00:00 11.4 8 Norte 25 Nordeste 0 -- -- 65
2020-03-23 17:00:00 13.6 6 Sudoeste 18 Sur 0 -- -- 40
2020-03-23 16:00:00 13.5 6 Este 13 Norte 0 -- -- 41
2020-03-23 15:00:00 13.2 5 Este 19 Sur 0 -- -- 48
2020-03-23 14:00:00 14 11 Sur 23 Sur 0 -- -- 43
2020-03-23 13:00:00 13.2 10 Sudoeste 22 Sur 0 -- -- 48
2020-03-23 12:00:00 12.1 6 Sur 17 Sur 0 -- -- 54
2020-03-23 11:00:00 8 3 Sur 6 Sudoeste 0 -- -- 89
2020-03-23 10:00:00 4.4 3 Sur 5 Sudoeste 0 -- -- 92
2020-03-23 09:00:00 3.3 2 Sur 5 Norte 0 -- -- 92
2020-03-23 08:00:00 2.3 2 Norte 7 Nordeste 0 -- -- 93
2020-03-23 07:00:00 2.1 3 Norte 10 Nordeste 0 -- -- 92
2020-03-23 06:00:00 3.1 5 Norte 9 Norte 0 -- -- 92
2020-03-23 05:00:00 3.4 2 Norte 8 Noroeste 0 -- -- 91
2020-03-23 04:00:00 4 4 Norte 7 Norte 0 -- -- 91
2020-03-23 03:00:00 4.3 2 Nordeste 7 Oeste 0 -- -- 91
2020-03-23 02:00:00 5.3 3 Noroeste 7 Noroeste 0 -- -- 89
2020-03-23 01:00:00 5.8 0 Calma 4 Sur 0 -- -- 90
2020-03-23 00:00:00 5.9 2 Oeste 10 Norte 0 -- -- 90
2020-03-22 23:00:00 6.2 3 Noroeste 10 Norte 0 -- -- 89
2020-03-22 22:00:00 6.2 5 Norte 8 Norte 0 -- -- 89
2020-03-22 21:00:00 6.6 0 Calma 12 Noroeste 0 -- -- 86
2020-03-22 20:00:00 7.6 7 Norte 19 Norte 0 -- -- 83
2020-03-22 19:00:00 9.2 9 Norte 19 Nordeste 0 -- -- 76
2020-03-22 18:00:00 10.5 9 Norte 25 Nordeste 0 -- -- 71
2020-03-22 17:00:00 11.6 10 Nordeste 21 Nordeste 0 -- -- 72
2020-03-22 16:00:00 9.6 5 Nordeste 12 Nordeste 0 -- -- 84
2020-03-22 15:00:00 8.8 5 Nordeste 15 Nordeste 0 -- -- 91
2020-03-22 14:00:00 8.3 6 Nordeste 13 Este 0 -- -- 91
2020-03-22 13:00:00 7.8 5 Nordeste 17 Nordeste 0 -- -- 91
2020-03-22 12:00:00 7.8 4 Sudoeste 8 Sur 0 -- -- 91
2020-03-22 11:00:00 6.9 3 Sur 7 Este 0 -- -- 92
2020-03-22 10:00:00 6.2 2 Este 6 Este 0 -- -- 92
2020-03-22 09:00:00 5.7 3 Sur 5 Sudeste 0 -- -- 93
2020-03-22 08:00:00 5.2 2 Oeste 5 Noroeste 0 -- -- 92
2020-03-22 07:00:00 5 3 Norte 5 Norte 0 -- -- 93
2020-03-22 06:00:00 5.5 0 Calma 4 Norte 0 -- -- 92
2020-03-22 05:00:00 5.6 3 Norte 5 Noroeste 0 -- -- 92
2020-03-22 04:00:00 5.8 0 Calma 6 Nordeste 0 -- -- 92
2020-03-22 03:00:00 5.6 4 Nordeste 8 Nordeste 0 -- -- 92
2020-03-22 02:00:00 5.8 0 Calma 5 Noroeste 0 -- -- 91
2020-03-22 01:00:00 6.2 0 Calma 4 Norte 0 -- -- 90
2020-03-22 00:00:00 6.9 0 Calma 8 Norte 0 -- -- 87
2020-03-21 23:00:00 7.3 3 Norte 10 Norte 0 -- -- 85
2020-03-21 22:00:00 7.3 2 Sudoeste 14 Norte 0 -- -- 84
2020-03-21 21:00:00 7.7 3 Norte 9 Norte 0.2 -- -- 81
2020-03-21 20:00:00 8.3 3 Noroeste 16 Norte 0.6 -- -- 82
2020-03-21 19:00:00 10.1 6 Norte 14 Nordeste 0 -- -- 66
2020-03-21 18:00:00 11.9 4 Nordeste 15 Nordeste 0 -- -- 62
2020-03-21 17:00:00 12.6 9 Sudoeste 22 Sur 0 -- -- 57
2020-03-21 16:00:00 13 12 Sur 24 Sur 0 -- -- 56
2020-03-21 15:00:00 12.2 15 Sur 32 Sur 0 -- -- 59
2020-03-21 14:00:00 12.8 19 Sur 38 Sur 0 -- -- 57
2020-03-21 13:00:00 11.9 25 Sur 39 Sur 0 -- -- 63
2020-03-21 12:00:00 9.7 16 Sur 30 Sur 0 -- -- 69
2020-03-21 11:00:00 9.6 18 Sur 36 Sur 0 -- -- 69
2020-03-21 10:00:00 9.8 19 Sur 32 Sur 0 -- -- 68
2020-03-21 09:00:00 8.1 18 Sur 31 Sur 0 -- -- 75
2020-03-21 08:00:00 7.7 15 Sur 40 Sudoeste 0 -- -- 79
2020-03-21 07:00:00 7.8 15 Sur 44 Sur 0 -- -- 81
2020-03-21 06:00:00 7.8 18 Sur 32 Sur 0 -- -- 79
2020-03-21 05:00:00 7.8 14 Sur 31 Sur 0 -- -- 79
2020-03-21 04:00:00 8.1 19 Sur 33 Sur 0 -- -- 78
2020-03-21 03:00:00 8.4 17 Sur 30 Sur 0 -- -- 78
2020-03-21 02:00:00 8.3 13 Sur 25 Sur 0 -- -- 77
2020-03-21 01:00:00 7.8 7 Sur 15 Sudoeste 0 -- -- 77
2020-03-21 00:00:00 8 4 Sur 21 Sur 0 -- -- 76
2020-03-20 23:00:00 7.6 5 Sudoeste 14 Sudoeste 0 -- -- 80
2020-03-20 22:00:00 7.9 5 Sur 13 Sur 0 -- -- 80
2020-03-20 21:00:00 8.3 5 Sur 14 Sudoeste 0 -- -- 80
2020-03-20 20:00:00 8.5 7 Sur 20 Sur 0 -- -- 82
2020-03-20 19:00:00 8.9 12 Sur 24 Sur 0.2 -- -- 81
2020-03-20 18:00:00 9.1 10 Sur 24 Sur 0 -- -- 81
2020-03-20 17:00:00 8.9 14 Sur 36 Sur 0.6 -- -- 84
2020-03-20 16:00:00 9.6 15 Sur 28 Sur 0.2 -- -- 76
2020-03-20 15:00:00 10.5 14 Sur 27 Sur 0 -- -- 71
2020-03-20 14:00:00 11.6 15 Sur 31 Sudoeste 0 -- -- 69
2020-03-20 13:00:00 9.5 15 Sur 27 Sur 0 -- -- 76
2020-03-20 12:00:00 8.6 13 Sur 28 Sur 0 -- -- 79
2020-03-20 11:00:00 8 13 Sur 32 Sur 0 -- -- 81
2020-03-20 10:00:00 7.4 11 Sudoeste 27 Sur 0.4 -- -- 84
2020-03-20 09:00:00 6.9 3 Sur 15 Sur 0.6 -- -- 84
2020-03-20 08:00:00 7.3 10 Sur 27 Sur 0 -- -- 79
2020-03-20 07:00:00 8.4 15 Sur 26 Sur 0 -- -- 71
2020-03-20 06:00:00 8.7 13 Sur 26 Sur 0 -- -- 68
2020-03-20 05:00:00 9.1 15 Sur 26 Sur 0 -- -- 66
2020-03-20 04:00:00 9.5 13 Sur 26 Sur 0 -- -- 65
2020-03-20 03:00:00 9.7 6 Sur 23 Sur 0 -- -- 65
2020-03-20 02:00:00 10 12 Sur 23 Sur 0 -- -- 65
2020-03-20 01:00:00 9.8 6 Sur 15 Sudoeste 0 -- -- 64
2020-03-20 00:00:00 9.4 2 Noroeste 4 Sudoeste 0 -- -- 68
2020-03-19 23:00:00 8.4 0 Calma 8 Sur 0 -- -- 85
2020-03-19 22:00:00 9 0 Calma 18 Noroeste 0 -- -- 83
2020-03-19 21:00:00 10.2 3 Noroeste 8 Norte 0 -- -- 73
2020-03-19 20:00:00 11.2 3 Norte 6 Norte 0 -- -- 65
2020-03-19 19:00:00 12.2 2 Nordeste 17 Sudoeste 0 -- -- 63
2020-03-19 18:00:00 13.1 11 Oeste 24 Noroeste 0 -- -- 50
2020-03-19 17:00:00 14.5 7 Norte 20 Norte 0 -- -- 50
2020-03-19 16:00:00 15.8 11 Norte 20 Norte 0 -- -- 49
2020-03-19 15:00:00 18.2 5 Sur 21 Sur 0 -- -- 36
2020-03-19 14:00:00 17.8 10 Sur 19 Sur 0 -- -- 38
2020-03-19 13:00:00 17 10 Sur 26 Sur 0 -- -- 40
2020-03-19 12:00:00 15.4 16 Sur 35 Sur 0 -- -- 49
2020-03-19 11:00:00 14.7 17 Sur 33 Sur 0 -- -- 48
2020-03-19 10:00:00 13.4 15 Sur 33 Sur 0 -- -- 53
2020-03-19 09:00:00 12 16 Sudoeste 34 Sur 0 -- -- 58
2020-03-19 08:00:00 11 14 Sur 30 Sur 0 -- -- 61
2020-03-19 07:00:00 11.2 3 Sudeste 17 Sur 0 -- -- 54
2020-03-19 06:00:00 11.6 8 Sudoeste 15 Oeste 0 -- -- 52
2020-03-19 05:00:00 11.6 4 Oeste 12 Oeste 0 -- -- 52
2020-03-19 04:00:00 11.6 4 Noroeste 12 Oeste 0 -- -- 53
2020-03-19 03:00:00 12.1 4 Noroeste 13 Oeste 0 -- -- 53
2020-03-19 02:00:00 11.9 2 Norte 9 Oeste 0 -- -- 58
2020-03-19 01:00:00 12.2 4 Sudoeste 14 Oeste 0 -- -- 57
2020-03-19 00:00:00 12.6 4 Norte 11 Sur 0 -- -- 55
2020-03-18 23:00:00 12.8 0 Calma 6 Noroeste 0 -- -- 55
2020-03-18 22:00:00 12.7 0 Calma 9 Norte 0 -- -- 63
2020-03-18 21:00:00 12.9 0 Calma 7 Norte 0 -- -- 64
2020-03-18 20:00:00 13.2 4 Oeste 15 Norte 0 -- -- 64
2020-03-18 19:00:00 15.4 7 Norte 14 Norte 0 -- -- 53
2020-03-18 18:00:00 17.8 5 Norte 12 Este 0 -- -- 38
2020-03-18 17:00:00 19 5 Nordeste 14 Nordeste 0 -- -- 37
2020-03-18 16:00:00 19.5 4 Este 13 Nordeste 0 -- -- 36
2020-03-18 15:00:00 19 5 Sur 14 Sur 0 -- -- 34
2020-03-18 14:00:00 17.7 8 Sur 17 Sur 0 -- -- 41
2020-03-18 13:00:00 17.2 6 Sudoeste 14 Sur 0 -- -- 49
2020-03-18 12:00:00 15.8 5 Sudoeste 20 Sur 0 -- -- 52
2020-03-18 11:00:00 13.8 9 Sur 17 Sudeste 0 -- -- 58
2020-03-18 10:00:00 12.7 6 Sur 21 Sur 0 -- -- 59
2020-03-18 09:00:00 10.5 6 Sur 21 Sur 0 -- -- 65
2020-03-18 08:00:00 8.7 5 Sudoeste 31 Sur 0 -- -- 72
2020-03-18 07:00:00 8.7 16 Sudoeste 35 Sur 0 -- -- 72
2020-03-18 06:00:00 8.7 5 Noroeste 30 Sur 0 -- -- 73
2020-03-18 05:00:00 8.8 9 Sudoeste 24 Sudoeste 0 -- -- 73
2020-03-18 04:00:00 8.7 8 Sudoeste 31 Sur 0 -- -- 74
2020-03-18 03:00:00 8.9 18 Sur 38 Sur 0 -- -- 75
2020-03-18 02:00:00 9.1 16 Sur 41 Sur 0 -- -- 73
2020-03-18 01:00:00 9.2 23 Sur 38 Sur 0 -- -- 72
2020-03-18 00:00:00 9.1 15 Sur 29 Sudoeste 0 -- -- 71
2020-03-17 23:00:00 9.1 16 Sur 32 Sur 0 -- -- 71
2020-03-17 22:00:00 9.5 18 Sur 35 Sur 0 -- -- 69
2020-03-17 21:00:00 9.9 19 Sur 32 Sur 0 -- -- 66
2020-03-17 20:00:00 10.3 19 Sur 30 Sur 0 -- -- 66
2020-03-17 19:00:00 11.5 13 Sur 33 Sur 0 -- -- 62
2020-03-17 18:00:00 13.5 22 Sur 32 Sur 0 -- -- 54
2020-03-17 17:00:00 15.4 13 Sur 31 Sur 0 -- -- 50
2020-03-17 16:00:00 15.1 18 Sur 28 Sur 0 -- -- 50
2020-03-17 15:00:00 12.5 4 Nordeste 10 Sur 0 -- -- 59
2020-03-17 14:00:00 11.6 3 Sudeste 15 Sur 0 -- -- 63
2020-03-17 13:00:00 12.1 3 Sudeste 21 Sudeste 0 -- -- 54
2020-03-17 12:00:00 10.6 10 Sur 20 Sur 0 -- -- 57
2020-03-17 11:00:00 6.3 4 Noroeste 12 Sur 0 -- -- 74
2020-03-17 10:00:00 7.3 3 Sudoeste 12 Nordeste 0 -- -- 71
2020-03-17 09:00:00 2 4 Sudeste 12 Sur 0 -- -- 86
2020-03-17 08:00:00 0.2 2 Este 7 Sur 0 -- -- 89
2020-03-17 07:00:00 -0.2 3 Sur 8 Noroeste 0 -- -- 88
2020-03-17 06:00:00 0.4 2 Nordeste 13 Norte 0 -- -- 86
2020-03-17 05:00:00 0.7 5 Norte 13 Norte 0 -- -- 85
2020-03-17 04:00:00 0.3 4 Norte 13 Norte 0 -- -- 85
2020-03-17 03:00:00 0.7 9 Norte 15 Norte 0 -- -- 83
2020-03-17 02:00:00 0.7 9 Norte 20 Norte 0 -- -- 82
2020-03-17 01:00:00 1.3 8 Norte 19 Norte 0 -- -- 79
2020-03-17 00:00:00 1.3 8 Norte 23 Norte 0 -- -- 76
2020-03-16 23:00:00 1 10 Norte 19 Norte 0 -- -- 79
2020-03-16 22:00:00 1 9 Norte 28 Nordeste 0 -- -- 81
2020-03-16 21:00:00 1.4 11 Norte 24 Norte 0 -- -- 82
2020-03-16 20:00:00 1.8 11 Norte 31 Nordeste 0 -- -- 80
2020-03-16 19:00:00 2.6 13 Norte 27 Nordeste 0.2 -- -- 76
2020-03-16 18:00:00 2.9 14 Norte 29 Norte 0 -- -- 84
2020-03-16 17:00:00 3.3 12 Norte 27 Norte 0.2 -- -- 83
2020-03-16 16:00:00 3 9 Norte 38 Nordeste 0.2 -- -- 85
2020-03-16 15:00:00 3.1 13 Norte 37 Nordeste 0.4 -- -- 86
2020-03-16 14:00:00 2.7 15 Norte 48 Norte 0 -- -- 87
2020-03-16 13:00:00 2.1 14 Norte 32 Norte 0.2 -- -- 88
2020-03-16 12:00:00 1.2 11 Norte 23 Norte 0.2 -- -- 91
2020-03-16 11:00:00 0.9 13 Norte 29 Nordeste 0 -- -- 91
2020-03-16 10:00:00 0.4 8 Norte 23 Norte 2 -- -- 92
2020-03-16 09:00:00 -0.1 9 Norte 19 Nordeste 0 -- -- 92
2020-03-16 08:00:00 -0.4 5 Noroeste 21 Norte 0.2 -- -- 92
2020-03-16 07:00:00 -0.6 10 Norte 24 Nordeste 0.2 -- -- 92
2020-03-16 06:00:00 -0.7 8 Norte 20 Nordeste 0.6 -- -- 92
2020-03-16 05:00:00 -0.8 5 Norte 18 Norte 0.6 -- -- 92
2020-03-16 04:00:00 -0.9 7 Norte 16 Norte 0.4 -- -- 92
2020-03-16 03:00:00 -0.6 7 Norte 15 Norte 0.8 -- -- 92
2020-03-16 02:00:00 -0.6 4 Norte 16 Nordeste 0 -- -- 92
2020-03-16 01:00:00 -0.6 6 Norte 18 Norte 0.2 -- -- 92
2020-03-16 00:00:00 -0.6 3 Norte 10 Nordeste 0.8 -- -- 91
2020-03-15 23:00:00 -0.6 3 Norte 15 Este 0 -- -- 91
2020-03-15 22:00:00 -0.7 3 Norte 8 Nordeste 0 -- -- 91
2020-03-15 21:00:00 -0.7 4 Norte 14 Norte 0.2 -- -- 91
2020-03-15 20:00:00 -0.5 4 Nordeste 9 Nordeste 0.4 -- -- 90
2020-03-15 19:00:00 -0.3 4 Nordeste 8 Este 2.2 -- -- 90
2020-03-15 18:00:00 -0.1 4 Nordeste 11 Norte 3 -- -- 89
2020-03-15 17:00:00 0.6 5 Norte 18 Norte 2.2 -- -- 87
2020-03-15 16:00:00 2 10 Norte 31 Norte 1.8 -- -- 86
2020-03-15 15:00:00 5 17 Norte 28 Norte 0.6 -- -- 84
2020-03-15 14:00:00 9.6 9 Noroeste 24 Noroeste 0 -- -- 53
2020-03-15 13:00:00 10.4 9 Sur 23 Sur 0 -- -- 48
2020-03-15 12:00:00 8.1 7 Sur 31 Norte 0 -- -- 58
2020-03-15 11:00:00 6.9 12 Norte 22 Nordeste 0 -- -- 67
2020-03-15 10:00:00 10.7 6 Sudoeste 19 Este 0 -- -- 44
2020-03-15 09:00:00 8.1 4 Sudoeste 8 Sudoeste 0 -- -- 44
2020-03-15 08:00:00 5.3 0 Calma 18 Norte 0 -- -- 40
2020-03-15 07:00:00 6.2 6 Noroeste 20 Sudoeste 0 -- -- 44
2020-03-15 06:00:00 7.2 11 Noroeste 21 Sudoeste 0 -- -- 42
2020-03-15 05:00:00 7.7 9 Oeste 19 Oeste 0 -- -- 39
2020-03-15 04:00:00 8.1 9 Oeste 23 Noroeste 0 -- -- 38
2020-03-15 03:00:00 8.3 6 Noroeste 11 Noroeste 0 -- -- 39
2020-03-15 02:00:00 9 8 Sudoeste 22 Sudoeste 0 -- -- 38
2020-03-15 01:00:00 9.3 10 Oeste 18 Sudoeste 0 -- -- 47
2020-03-15 00:00:00 9.6 0 Calma 8 Norte 0 -- -- 34
2020-03-14 23:00:00 9.4 2 Norte 8 Norte 0 -- -- 35
2020-03-14 22:00:00 9.2 0 Calma 12 Norte 0 -- -- 45
2020-03-14 21:00:00 9.6 10 Norte 15 Norte 0 -- -- 37
2020-03-14 20:00:00 9.9 0 Calma 16 Norte 0 -- -- 50
2020-03-14 19:00:00 11.8 5 Norte 14 Norte 0 -- -- 48
2020-03-14 18:00:00 14.8 6 Norte 15 Nordeste 0 -- -- 38
2020-03-14 17:00:00 15.2 7 Nordeste 14 Norte 0 -- -- 32
2020-03-14 16:00:00 16.2 5 Norte 13 Nordeste 0 -- -- 31
2020-03-14 15:00:00 15.2 4 Sudeste 10 Sudeste 0 -- -- 35
2020-03-14 14:00:00 14.3 5 Sudeste 17 Este 0 -- -- 40
2020-03-14 13:00:00 13.3 5 Sur 10 Sur 0 -- -- 52
2020-03-14 12:00:00 10.8 5 Sur 7 Sur 0 -- -- 61
2020-03-14 11:00:00 9 4 Sur 7 Sur 0 -- -- 67
2020-03-14 10:00:00 10.1 3 Sur 4 Sur 0 -- -- 54
2020-03-14 09:00:00 6.7 2 Sur 4 Sur 0 -- -- 50
2020-03-14 08:00:00 2.9 0 Calma 2 Nordeste 0 -- -- 52
2020-03-14 07:00:00 3.4 0 Calma 3 Noroeste 0 -- -- 57
2020-03-14 06:00:00 1.3 0 Calma 4 Nordeste 0 -- -- 63
2020-03-14 05:00:00 4.4 2 Nordeste 5 Noroeste 0 -- -- 59
2020-03-14 04:00:00 0.9 3 Nordeste 5 Este 0 -- -- 93
2020-03-14 03:00:00 2 0 Calma 5 Nordeste 0 -- -- 93
2020-03-14 02:00:00 2 3 Norte 6 Nordeste 0 -- -- 92
2020-03-14 01:00:00 2.5 3 Norte 4 Norte 0 -- -- 90
2020-03-14 00:00:00 3.2 2 Norte 7 Nordeste 0 -- -- 89
2020-03-13 23:00:00 4.5 3 Norte 6 Norte 0 -- -- 88
2020-03-13 22:00:00 4.7 4 Oeste 11 Oeste 0 -- -- 86
2020-03-13 21:00:00 5.4 3 Nordeste 12 Norte 0 -- -- 82
2020-03-13 20:00:00 6.3 8 Norte 17 Norte 0 -- -- 81
2020-03-13 19:00:00 7.4 4 Nordeste 9 Noroeste 0 -- -- 77
2020-03-13 18:00:00 9.9 5 Norte 16 Nordeste 0 -- -- 67
2020-03-13 17:00:00 10 9 Nordeste 19 Nordeste 0 -- -- 68
2020-03-13 16:00:00 9.2 8 Norte 14 Nordeste 0 -- -- 72
2020-03-13 15:00:00 8.2 5 Nordeste 13 Norte 0 -- -- 77
2020-03-13 14:00:00 6.8 7 Nordeste 16 Nordeste 0 -- -- 85
2020-03-13 13:00:00 6.1 6 Nordeste 14 Nordeste 0 -- -- 91
2020-03-13 12:00:00 6 4 Nordeste 10 Nordeste 0 -- -- 90
2020-03-13 11:00:00 5 3 Sur 5 Sudeste 0 -- -- 92
2020-03-13 10:00:00 4.2 3 Sur 6 Sudeste 0 -- -- 93
2020-03-13 09:00:00 3.4 2 Sudeste 6 Nordeste 0 -- -- 93
2020-03-13 08:00:00 3.4 2 Sur 4 Sur 0 -- -- 93
2020-03-13 07:00:00 3.6 0 Calma 5 Sudoeste 0 -- -- 93
2020-03-13 06:00:00 3.6 0 Calma 8 Norte 0 -- -- 93
2020-03-13 05:00:00 3.5 4 Norte 8 Norte 0 -- -- 93
2020-03-13 04:00:00 3.5 5 Norte 14 Norte 0 -- -- 93
2020-03-13 03:00:00 3.6 8 Norte 17 Norte 0 -- -- 93
2020-03-13 02:00:00 3.8 6 Norte 14 Norte 0 -- -- 92
2020-03-13 01:00:00 4.1 6 Norte 13 Noroeste 0 -- -- 92
2020-03-13 00:00:00 4.6 2 Sudoeste 6 Sur 0 -- -- 92
2020-03-12 23:00:00 4.9 3 Sur 9 Noroeste 0 -- -- 91
2020-03-12 22:00:00 5 4 Norte 13 Nordeste 0 -- -- 91
2020-03-12 21:00:00 5.2 6 Nordeste 17 Norte 0 -- -- 91
2020-03-12 20:00:00 5.8 9 Norte 16 Norte 0 -- -- 91
2020-03-12 19:00:00 6.3 9 Norte 18 Norte 0 -- -- 89
2020-03-12 18:00:00 7.3 8 Norte 21 Norte 0 -- -- 87
2020-03-12 17:00:00 8.2 10 Norte 22 Norte 0 -- -- 83
2020-03-12 16:00:00 9.6 10 Norte 23 Nordeste 0 -- -- 80
2020-03-12 15:00:00 11.2 8 Nordeste 21 Nordeste 0 -- -- 71
2020-03-12 14:00:00 10.4 7 Norte 17 Nordeste 0 -- -- 76
2020-03-12 13:00:00 9.7 7 Nordeste 17 Nordeste 0 -- -- 83
2020-03-12 12:00:00 8 8 Nordeste 14 Norte 0 -- -- 91
2020-03-12 11:00:00 7.7 3 Este 11 Nordeste 0 -- -- 91
2020-03-12 10:00:00 7.4 5 Nordeste 9 Nordeste 0 -- -- 92
2020-03-12 09:00:00 7.3 4 Nordeste 9 Nordeste 0 -- -- 92
2020-03-12 08:00:00 7.2 0 Calma 5 Nordeste 0 -- -- 91
2020-03-12 07:00:00 7.8 0 Calma 10 Nordeste 0 -- -- 91
2020-03-12 06:00:00 7.9 0 Calma 9 Norte 0 -- -- 91
2020-03-12 05:00:00 7.9 3 Norte 6 Nordeste 0 -- -- 91
2020-03-12 04:00:00 8.3 2 Oeste 6 Norte 0 -- -- 90
2020-03-12 03:00:00 8.6 2 Noroeste 5 Norte 0 -- -- 90
2020-03-12 02:00:00 8.8 3 Norte 4 Norte 0 -- -- 89
2020-03-12 01:00:00 9.1 2 Noroeste 5 Nordeste 0 -- -- 86
2020-03-12 00:00:00 10 0 Calma 6 Oeste 0 -- -- 79
2020-03-11 23:00:00 10.2 0 Calma 6 Norte 0 -- -- 79
2020-03-11 22:00:00 11 2 Nordeste 9 Noroeste 0 -- -- 78
2020-03-11 21:00:00 12 3 Nordeste 14 Norte 0 -- -- 67
2020-03-11 20:00:00 14.7 7 Norte 15 Norte 0 -- -- 42
2020-03-11 19:00:00 16.5 6 Norte 19 Este 0 -- -- 42
2020-03-11 18:00:00 18.5 7 Nordeste 23 Oeste 0 -- -- 34
2020-03-11 17:00:00 19.8 6 Sudeste 23 Este 0 -- -- 31
2020-03-11 16:00:00 20.5 6 Sudeste 21 Sudoeste 0 -- -- 30
2020-03-11 15:00:00 20.6 5 Este 20 Sudoeste 0 -- -- 36
2020-03-11 14:00:00 19.6 11 Sudoeste 26 Oeste 0 -- -- 29
2020-03-11 13:00:00 18.1 13 Sur 25 Sur 0 -- -- 44
2020-03-11 12:00:00 16.4 12 Sur 21 Sur 0 -- -- 47
2020-03-11 11:00:00 17 6 Sur 14 Sur 0 -- -- 46
2020-03-11 10:00:00 15.2 5 Sur 14 Sur 0 -- -- 47
2020-03-11 09:00:00 13.4 2 Sur 6 Noroeste 0 -- -- 54
2020-03-11 08:00:00 9.6 4 Norte 7 Noroeste 0 -- -- 65
2020-03-11 07:00:00 9.7 4 Norte 7 Norte 0 -- -- 64
2020-03-11 06:00:00 10.1 3 Noroeste 6 Norte 0 -- -- 62
2020-03-11 05:00:00 9.8 4 Noroeste 8 Norte 0 -- -- 65
2020-03-11 04:00:00 9.7 3 Norte 8 Noroeste 0 -- -- 66
2020-03-11 03:00:00 9.3 4 Noroeste 12 Noroeste 0 -- -- 67
2020-03-11 02:00:00 8.7 6 Noroeste 10 Noroeste 0 -- -- 72
2020-03-11 01:00:00 9.1 6 Noroeste 9 Nordeste 0 -- -- 72
2020-03-11 00:00:00 10.2 3 Norte 9 Norte 0 -- -- 66
2020-03-10 23:00:00 10.3 2 Noroeste 8 Norte 0 -- -- 63
2020-03-10 22:00:00 10.5 3 Nordeste 7 Nordeste 0 -- -- 60
2020-03-10 21:00:00 11.1 2 Este 21 Norte 0 -- -- 59
2020-03-10 20:00:00 12.4 4 Sur 17 Norte 0 -- -- 54
2020-03-10 19:00:00 14.4 6 Nordeste 20 Sudoeste 0 -- -- 42
2020-03-10 18:00:00 16.2 7 Sur 23 Norte 0 -- -- 32
2020-03-10 17:00:00 17.7 7 Oeste 25 Sudeste 0 -- -- 26
2020-03-10 16:00:00 18.5 5 Sur 23 Norte 0 -- -- 24
2020-03-10 15:00:00 17.6 11 Norte 32 Norte 0 -- -- 22
2020-03-10 14:00:00 18.1 7 Este 23 Sudoeste 0 -- -- 22
2020-03-10 13:00:00 17.8 7 Sur 23 Sur 0 -- -- 10
2020-03-10 12:00:00 18.1 7 Sudoeste 17 Sur 0 -- -- 10
2020-03-10 11:00:00 16.7 5 Sur 10 Sur 0 -- -- 11
2020-03-10 10:00:00 14.3 3 Noroeste 12 Oeste 0 -- -- 4
2020-03-10 09:00:00 10.5 7 Oeste 14 Oeste 0 -- -- 12
2020-03-10 08:00:00 9.6 5 Noroeste 10 Oeste 0 -- -- 6
2020-03-10 07:00:00 8.9 3 Noroeste 10 Noroeste 0 -- -- 11
2020-03-10 06:00:00 9 4 Norte 10 Norte 0 -- -- 14
2020-03-10 05:00:00 9.6 6 Norte 10 Norte 0 -- -- 13
2020-03-10 04:00:00 9.1 3 Norte 8 Norte 0 -- -- 13
2020-03-10 03:00:00 8.1 4 Norte 6 Noroeste 0 -- -- 31
2020-03-10 02:00:00 7.7 2 Norte 6 Norte 0 -- -- 42
2020-03-10 01:00:00 7.5 2 Norte 5 Noroeste 0 -- -- 36
2020-03-10 00:00:00 6.9 0 Calma 6 Norte 0 -- -- 61
2020-03-09 23:00:00 6.7 4 Norte 6 Noroeste 0 -- -- 56
2020-03-09 22:00:00 6.6 0 Calma 7 Norte 0 -- -- 64
2020-03-09 21:00:00 6.9 3 Norte 11 Norte 0 -- -- 66
2020-03-09 20:00:00 7.4 6 Norte 14 Norte 0 -- -- 65
2020-03-09 19:00:00 8.2 8 Norte 12 Norte 0 -- -- 63
2020-03-09 18:00:00 9.9 5 Nordeste 14 Nordeste 0 -- -- 54
2020-03-09 17:00:00 11.6 4 Norte 15 Nordeste 0 -- -- 44
2020-03-09 16:00:00 10.8 4 Norte 19 Nordeste 0 -- -- 54
2020-03-09 15:00:00 10.2 6 Este 17 Norte 0 -- -- 54
2020-03-09 14:00:00 9.3 8 Norte 17 Este 0 -- -- 61
2020-03-09 13:00:00 8.9 5 Nordeste 18 Noroeste 0 -- -- 62
2020-03-09 12:00:00 7.9 5 Norte 15 Norte 0 -- -- 62
2020-03-09 11:00:00 6.3 5 Sur 18 Noroeste 0 -- -- 70
2020-03-09 10:00:00 4 4 Nordeste 8 Nordeste 0 -- -- 84
2020-03-09 09:00:00 3 2 Nordeste 10 Norte 0 -- -- 88
2020-03-09 08:00:00 2.8 3 Nordeste 7 Nordeste 0 -- -- 88
2020-03-09 07:00:00 2.8 3 Este 9 Nordeste 0 -- -- 88
2020-03-09 06:00:00 2.9 3 Norte 14 Norte 0 -- -- 87
2020-03-09 05:00:00 3 3 Noroeste 9 Nordeste 0 -- -- 87
2020-03-09 04:00:00 3.1 3 Este 12 Nordeste 0 -- -- 88
2020-03-09 03:00:00 3.6 5 Nordeste 22 Norte 0 -- -- 87
2020-03-09 02:00:00 4.2 10 Norte 20 Norte 0 -- -- 84
2020-03-09 01:00:00 4.3 7 Nordeste 19 Noroeste 0 -- -- 82
2020-03-09 00:00:00 4.4 4 Nordeste 17 Nordeste 0 -- -- 83
2020-03-08 23:00:00 4.9 6 Nordeste 18 Norte 0 -- -- 82
2020-03-08 22:00:00 5.1 6 Norte 23 Nordeste 0 -- -- 79
2020-03-08 21:00:00 5.7 6 Nordeste 22 Norte 0 -- -- 77
2020-03-08 20:00:00 6.2 10 Nordeste 32 Norte 0 -- -- 73
2020-03-08 19:00:00 7.4 13 Norte 33 Norte 0 -- -- 67
2020-03-08 18:00:00 8.4 15 Norte 31 Norte 0 -- -- 67
2020-03-08 17:00:00 8.9 12 Norte 28 Norte 0 -- -- 69
2020-03-08 16:00:00 9.1 14 Norte 37 Norte 0 -- -- 74
2020-03-08 15:00:00 8.9 11 Norte 33 Sudoeste 0 -- -- 76
2020-03-08 14:00:00 8.4 10 Sudoeste 28 Oeste 0 -- -- 79
2020-03-08 13:00:00 7.9 4 Sudeste 13 Sur 0 -- -- 85
2020-03-08 12:00:00 7 5 Sudoeste 13 Sur 0 -- -- 88
2020-03-08 11:00:00 6.5 5 Sur 14 Sur 0 -- -- 88
2020-03-08 10:00:00 6.1 4 Nordeste 14 Oeste 0.4 -- -- 87
2020-03-08 09:00:00 5.6 4 Sur 11 Oeste 0 -- -- 86
2020-03-08 08:00:00 3.9 3 Sur 5 Sudeste 0 -- -- 87
2020-03-08 07:00:00 3.5 3 Noroeste 6 Sur 0.4 -- -- 84
2020-03-08 06:00:00 3.4 3 Noroeste 7 Oeste 0 -- -- 78
2020-03-08 05:00:00 3.6 6 Oeste 13 Noroeste 0 -- -- 76
2020-03-08 04:00:00 3.6 6 Oeste 11 Oeste 0 -- -- 73
2020-03-08 03:00:00 3.3 5 Oeste 16 Oeste 0 -- -- 82
2020-03-08 02:00:00 3.2 6 Oeste 16 Oeste 0 -- -- 84
2020-03-08 01:00:00 4.2 5 Oeste 14 Noroeste 0 -- -- 85
2020-03-08 00:00:00 5 3 Nordeste 14 Norte 0 -- -- 80
2020-03-07 23:00:00 5.9 4 Noroeste 11 Norte 0 -- -- 75
2020-03-07 22:00:00 5.3 4 Norte 9 Norte 0 -- -- 71
2020-03-07 21:00:00 5.6 0 Calma 12 Norte 0 -- -- 70
2020-03-07 20:00:00 6.9 3 Noroeste 10 Norte 0 -- -- 63
2020-03-07 19:00:00 8.5 5 Sudoeste 13 Sudoeste 0 -- -- 51
2020-03-07 18:00:00 10.5 4 Noroeste 11 Nordeste 0 -- -- 61
2020-03-07 17:00:00 11.9 5 Norte 17 Norte 0 -- -- 58
2020-03-07 16:00:00 11.5 5 Sudeste 12 Este 0 -- -- 57
2020-03-07 15:00:00 10.5 6 Noroeste 12 Norte 0 -- -- 62
2020-03-07 14:00:00 9 5 Sudeste 13 Nordeste 0 -- -- 65
2020-03-07 13:00:00 8 4 Este 17 Norte 0 -- -- 65
2020-03-07 12:00:00 7.8 5 Nordeste 17 Nordeste 0 -- -- 61
2020-03-07 11:00:00 6.3 5 Nordeste 13 Norte 0 -- -- 73
2020-03-07 10:00:00 6.4 4 Nordeste 13 Este 0 -- -- 78
2020-03-07 09:00:00 3.7 3 Norte 9 Norte 0 -- -- 86
2020-03-07 08:00:00 3.5 6 Norte 16 Norte 0 -- -- 88
2020-03-07 07:00:00 3.7 6 Norte 14 Nordeste 0 -- -- 90
2020-03-07 06:00:00 3.7 6 Norte 15 Nordeste 0 -- -- 91
2020-03-07 05:00:00 3.7 4 Norte 15 Norte 0 -- -- 92
2020-03-07 04:00:00 3.7 5 Norte 18 Nordeste 0 -- -- 92
2020-03-07 03:00:00 3.7 3 Este 13 Norte 0.2 -- -- 92
2020-03-07 02:00:00 3.6 5 Norte 17 Nordeste 0.4 -- -- 92
2020-03-07 01:00:00 3.4 3 Sudoeste 12 Norte 0 -- -- 91
2020-03-07 00:00:00 2.9 3 Noroeste 10 Nordeste 0.2 -- -- 91
2020-03-06 23:00:00 2.3 3 Sur 9 Sur 0.6 -- -- 90
2020-03-06 22:00:00 2.1 2 Nordeste 14 Nordeste 0.4 -- -- 89
2020-03-06 21:00:00 2.3 2 Sur 17 Norte 0 -- -- 84
2020-03-06 20:00:00 2.2 6 Norte 23 Norte 0 -- -- 79
2020-03-06 19:00:00 3 5 Norte 24 Nordeste 0 -- -- 72
2020-03-06 18:00:00 3.6 8 Norte 22 Norte 0 -- -- 69
2020-03-06 17:00:00 4.1 5 Sudeste 18 Norte 0 -- -- 76
2020-03-06 16:00:00 3.3 6 Nordeste 25 Norte 0.4 -- -- 85
2020-03-06 15:00:00 3.2 6 Nordeste 25 Norte 0.2 -- -- 85
2020-03-06 14:00:00 4.1 6 Norte 27 Este 0 -- -- 83
2020-03-06 13:00:00 3.1 11 Norte 32 Nordeste 0.6 -- -- 80
2020-03-06 12:00:00 2.2 11 Norte 28 Norte 0 -- -- 84
2020-03-06 11:00:00 1.5 9 Norte 28 Nordeste 0 -- -- 83
2020-03-06 10:00:00 0.5 9 Nordeste 27 Este 0.4 -- -- 89
2020-03-06 09:00:00 0.5 13 Norte 32 Nordeste 0.8 -- -- 89
2020-03-06 08:00:00 0.7 11 Nordeste 36 Norte 0.2 -- -- 87
2020-03-06 07:00:00 0.8 12 Nordeste 36 Nordeste 0.4 -- -- 89
2020-03-06 06:00:00 0.7 10 Nordeste 35 Nordeste 0.8 -- -- 90
2020-03-06 05:00:00 0.7 10 Nordeste 32 Nordeste 1.2 -- -- 89
2020-03-06 04:00:00 1 7 Este 30 Norte 0.2 -- -- 88
2020-03-06 03:00:00 1.4 8 Este 35 Norte 1.6 -- -- 90
2020-03-06 02:00:00 1.8 10 Este 36 Norte 2.6 -- -- 89
2020-03-06 01:00:00 2.4 10 Nordeste 45 Norte 2 -- -- 87
2020-03-06 00:00:00 2.3 14 Norte 36 Norte 1.4 -- -- 86
2020-03-05 23:00:00 3.1 12 Nordeste 28 Norte 0.4 -- -- 84
2020-03-05 22:00:00 3.2 10 Nordeste 33 Norte 0 -- -- 85
2020-03-05 21:00:00 3 12 Norte 34 Noroeste 1.4 -- -- 87
2020-03-05 20:00:00 3.3 5 Nordeste 26 Norte 1 -- -- 88
2020-03-05 19:00:00 3.9 6 Nordeste 23 Norte 0 -- -- 83
2020-03-05 18:00:00 4.2 6 Norte 32 Norte 0 -- -- 85
2020-03-05 17:00:00 5.2 9 Nordeste 35 Norte 0 -- -- 80
2020-03-05 16:00:00 4.2 8 Nordeste 34 Noroeste 1.4 -- -- 88
2020-03-05 15:00:00 4.8 13 Norte 39 Norte 1.2 -- -- 86
2020-03-05 14:00:00 4.5 12 Norte 24 Norte 1.8 -- -- 88
2020-03-05 13:00:00 4.9 9 Nordeste 28 Norte 2.2 -- -- 88
2020-03-05 12:00:00 4.7 13 Norte 46 Norte 0.8 -- -- 87
2020-03-05 11:00:00 4.5 14 Nordeste 44 Norte 0 -- -- 83
2020-03-05 10:00:00 4.3 13 Nordeste 39 Nordeste 0 -- -- 81
2020-03-05 09:00:00 4.1 20 Norte 45 Norte 0.8 -- -- 84
2020-03-05 08:00:00 4.4 18 Nordeste 43 Nordeste 0.6 -- -- 86
2020-03-05 07:00:00 4.7 8 Sudeste 42 Norte 4 -- -- 87
2020-03-05 06:00:00 5.8 18 Norte 49 Norte 4.8 -- -- 85
2020-03-05 05:00:00 8.8 12 Sudoeste 48 Sur 4.8 -- -- 84
2020-03-05 04:00:00 9.1 19 Sur 54 Sudoeste 1.8 -- -- 83
2020-03-05 03:00:00 9.1 16 Sudoeste 49 Sudoeste 0.8 -- -- 83
2020-03-05 02:00:00 9 17 Sur 44 Sur 0.6 -- -- 85
2020-03-05 01:00:00 9.2 9 Sudeste 38 Sudoeste 0.2 -- -- 83
2020-03-05 00:00:00 10.1 13 Sudoeste 39 Sur 0 -- -- 77
2020-03-04 23:00:00 10.1 12 Oeste 32 Sudoeste 0.2 -- -- 82
2020-03-04 22:00:00 9.9 8 Sur 28 Oeste 0.4 -- -- 84
2020-03-04 21:00:00 10.2 13 Sur 36 Sudoeste 0.2 -- -- 79
2020-03-04 20:00:00 9.7 12 Sur 36 Sudoeste 0.4 -- -- 84
2020-03-04 19:00:00 9.6 7 Sur 29 Sur 0.2 -- -- 84
2020-03-04 18:00:00 9.9 8 Sudoeste 24 Oeste 0 -- -- 80
2020-03-04 17:00:00 10.6 12 Oeste 36 Oeste 0 -- -- 69
2020-03-04 16:00:00 10.6 11 Sudoeste 35 Sudoeste 0 -- -- 71
2020-03-04 15:00:00 11.1 13 Oeste 35 Sudoeste 0 -- -- 69
2020-03-04 14:00:00 11 10 Noroeste 37 Oeste 0 -- -- 72
2020-03-04 13:00:00 9.9 8 Sur 28 Sudoeste 0.6 -- -- 82
2020-03-04 12:00:00 11.2 4 Sudeste 20 Norte 0 -- -- 77
2020-03-04 11:00:00 10.5 8 Sur 27 Nordeste 0 -- -- 74
2020-03-04 10:00:00 9.2 4 Este 20 Nordeste 0 -- -- 81
2020-03-04 09:00:00 8.4 5 Nordeste 23 Nordeste 0 -- -- 80
2020-03-04 08:00:00 7.8 6 Este 43 Norte 0 -- -- 83
2020-03-04 07:00:00 8.1 14 Nordeste 37 Norte 0.2 -- -- 83
2020-03-04 06:00:00 8.8 8 Sudeste 24 Norte 0 -- -- 84
2020-03-04 05:00:00 8.8 5 Este 20 Nordeste 0 -- -- 85
2020-03-04 04:00:00 9 6 Este 31 Norte 0 -- -- 83
2020-03-04 03:00:00 9.3 10 Este 30 Nordeste 0 -- -- 84
2020-03-04 02:00:00 9.5 8 Este 32 Sudoeste 0.4 -- -- 86
2020-03-04 01:00:00 9.4 6 Sudeste 20 Sur 0.2 -- -- 88
2020-03-04 00:00:00 9.2 4 Este 30 Oeste 1 -- -- 89
2020-03-03 23:00:00 8.9 6 Sudoeste 26 Oeste 2.4 -- -- 89
2020-03-03 22:00:00 7.3 5 Sur 13 Sur 0.6 -- -- 91
2020-03-03 21:00:00 6.5 2 Nordeste 9 Sur 0.6 -- -- 87
2020-03-03 20:00:00 8 4 Sur 12 Sur 0 -- -- 74
2020-03-03 19:00:00 8.3 4 Este 19 Sur 0 -- -- 65
2020-03-03 18:00:00 8.6 4 Sur 20 Oeste 0 -- -- 72
2020-03-03 17:00:00 8.7 10 Norte 31 Norte 0 -- -- 75
2020-03-03 16:00:00 9.2 13 Norte 28 Norte 0 -- -- 73
2020-03-03 15:00:00 9.2 12 Norte 30 Norte 0 -- -- 76
2020-03-03 14:00:00 9.1 9 Norte 37 Norte 0 -- -- 76
2020-03-03 13:00:00 9.3 13 Norte 33 Norte 0 -- -- 79
2020-03-03 12:00:00 9.2 19 Norte 41 Nordeste 1.4 -- -- 85
2020-03-03 11:00:00 9.1 16 Norte 54 Nordeste 2.6 -- -- 88
2020-03-03 10:00:00 8.9 25 Norte 66 Norte 0.4 -- -- 87
2020-03-03 09:00:00 9.5 21 Nordeste 52 Nordeste 0.6 -- -- 82
2020-03-03 08:00:00 7.4 12 Nordeste 46 Sudoeste 1.4 -- -- 84
2020-03-03 07:00:00 6.3 20 Sur 53 Oeste 0.2 -- -- 86
2020-03-03 06:00:00 5.4 23 Sudoeste 64 Oeste 1 -- -- 85
2020-03-03 05:00:00 5 22 Oeste 62 Oeste 3.4 -- -- 83
2020-03-03 04:00:00 4 10 Sudoeste 49 Oeste 1.6 -- -- 82
2020-03-03 03:00:00 3.6 7 Este 24 Noroeste 1.4 -- -- 83
2020-03-03 02:00:00 3.5 10 Oeste 32 Oeste 0.4 -- -- 82
2020-03-03 01:00:00 3.4 6 Sudeste 18 Oeste 0 -- -- 81
2020-03-03 00:00:00 3.1 5 Sur 25 Sudoeste 0 -- -- 81
2020-03-02 23:00:00 2.4 9 Sur 22 Sudoeste 0.2 -- -- 86
2020-03-02 22:00:00 2.1 5 Este 17 Norte 0 -- -- 83
2020-03-02 21:00:00 2 4 Este 28 Nordeste 0 -- -- 81
2020-03-02 20:00:00 1.9 9 Nordeste 33 Norte 0 -- -- 84
2020-03-02 19:00:00 1.7 11 Nordeste 27 Nordeste 0.2 -- -- 87
2020-03-02 18:00:00 1.4 4 Sudeste 11 Sur 0.6 -- -- 91
2020-03-02 17:00:00 1.1 5 Sur 11 Sur 0.2 -- -- 91
2020-03-02 16:00:00 0.1 5 Este 21 Nordeste 1.4 -- -- 90
2020-03-02 15:00:00 2.2 11 Norte 41 Nordeste 0 -- -- 81
2020-03-02 14:00:00 1.1 9 Nordeste 35 Nordeste 0.2 -- -- 90
2020-03-02 13:00:00 0.9 10 Nordeste 35 Noroeste 0 -- -- 90
2020-03-02 12:00:00 -0.1 8 Este 27 Este 0.4 -- -- 91
2020-03-02 11:00:00 -0.3 13 Nordeste 52 Norte 1.2 -- -- 90
2020-03-02 10:00:00 0.7 11 Nordeste 39 Nordeste 0.2 -- -- 87
2020-03-02 09:00:00 1 13 Norte 40 Norte 0.4 -- -- 88
2020-03-02 08:00:00 0.7 6 Sudeste 31 Nordeste 1.4 -- -- 90
2020-03-02 07:00:00 1 9 Nordeste 31 Norte 2.6 -- -- 90
2020-03-02 06:00:00 1.5 8 Nordeste 43 Norte 3 -- -- 89
2020-03-02 05:00:00 2.7 13 Nordeste 49 Norte 0.4 -- -- 86
2020-03-02 04:00:00 3.7 19 Nordeste 46 Noroeste 2.2 -- -- 86
2020-03-02 03:00:00 5.3 13 Nordeste 80 Norte 8 -- -- 88
2020-03-02 02:00:00 9.3 21 Nordeste 74 Sur 3.2 -- -- 82
2020-03-02 01:00:00 9 21 Sudoeste 67 Sudoeste 1.4 -- -- 81
2020-03-02 00:00:00 9.1 16 Sudeste 88 Sudoeste 5.2 -- -- 82
2020-03-01 23:00:00 8.2 17 Oeste 57 Sudoeste 4.8 -- -- 82
2020-03-01 22:00:00 6.2 13 Sur 61 Sur 3.4 -- -- 85
2020-03-01 21:00:00 6.1 26 Sur 57 Sudoeste 2 -- -- 82
2020-03-01 20:00:00 5 17 Oeste 54 Sudoeste 1 -- -- 81
2020-03-01 19:00:00 5.9 11 Sur 32 Sur 1.2 -- -- 81
2020-03-01 18:00:00 7.5 10 Oeste 51 Oeste 0 -- -- 67
2020-03-01 17:00:00 8 13 Oeste 44 Sudoeste 0 -- -- 63
2020-03-01 16:00:00 7.9 18 Oeste 58 Oeste 0 -- -- 60
2020-03-01 15:00:00 7.8 14 Sudoeste 42 Oeste 0 -- -- 60
2020-03-01 14:00:00 8.3 17 Noroeste 42 Norte 0 -- -- 57
2020-03-01 13:00:00 7.8 10 Sudoeste 35 Noroeste 0 -- -- 61
2020-03-01 12:00:00 7.1 17 Oeste 42 Oeste 0 -- -- 66
2020-03-01 11:00:00 5.9 10 Oeste 33 Noroeste 0 -- -- 73
2020-03-01 10:00:00 5.2 12 Norte 38 Norte 0 -- -- 82
2020-03-01 09:00:00 5.8 17 Norte 45 Nordeste 0 -- -- 82
2020-03-01 08:00:00 6.3 10 Este 41 Nordeste 0 -- -- 76
2020-03-01 07:00:00 6.1 13 Nordeste 71 Sur 0 -- -- 72
2020-03-01 06:00:00 6.3 14 Sudeste 91 Oeste 1.4 -- -- 82
2020-03-01 05:00:00 5.3 14 Sur 46 Sur 0.6 -- -- 85
2020-03-01 04:00:00 4.5 20 Sur 42 Sur 1.4 -- -- 86
2020-03-01 03:00:00 4.2 15 Sur 42 Sur 0 -- -- 86
2020-03-01 02:00:00 4 9 Sudeste 33 Sur 0 -- -- 84
2020-03-01 01:00:00 4.3 11 Sudoeste 32 Noroeste 0 -- -- 77
2020-03-01 00:00:00 4 6 Sudeste 35 Oeste 0.2 -- -- 81
2020-02-29 23:00:00 4 9 Sur 30 Noroeste 0 -- -- 78
2020-02-29 22:00:00 4.1 8 Este 20 Sur 0 -- -- 79
2020-02-29 21:00:00 3.9 11 Oeste 38 Norte 0.2 -- -- 81
2020-02-29 20:00:00 4.4 9 Sudoeste 43 Sudoeste 0 -- -- 74
2020-02-29 19:00:00 4.7 10 Sudeste 36 Oeste 0 -- -- 70
2020-02-29 18:00:00 4.9 10 Sudeste 40 Sudoeste 0 -- -- 69
2020-02-29 17:00:00 4.4 12 Sudoeste 45 Oeste 0 -- -- 76
2020-02-29 16:00:00 5.1 16 Oeste 42 Oeste 0.4 -- -- 72
2020-02-29 15:00:00 4.8 11 Norte 46 Norte 0.4 -- -- 81
2020-02-29 14:00:00 5.2 8 Este 44 Sudeste 0 -- -- 75
2020-02-29 13:00:00 5.4 9 Sur 35 Norte 0.4 -- -- 72
2020-02-29 12:00:00 5.1 13 Nordeste 42 Oeste 0 -- -- 72
2020-02-29 11:00:00 5.4 10 Nordeste 39 Sudoeste 0 -- -- 68
2020-02-29 10:00:00 5 12 Sudoeste 37 Sur 0 -- -- 70
2020-02-29 09:00:00 4.9 11 Sudeste 29 Sudeste 0.6 -- -- 79
2020-02-29 08:00:00 5.6 12 Este 41 Norte 1.8 -- -- 86
2020-02-29 07:00:00 6.5 17 Nordeste 38 Norte 2.8 -- -- 85
2020-02-29 06:00:00 7.3 9 Sudeste 58 Sur 3.4 -- -- 84
2020-02-29 05:00:00 7.1 27 Sudoeste 60 Sur 2.6 -- -- 80
2020-02-29 04:00:00 6.7 19 Sur 51 Sur 0.6 -- -- 77
2020-02-29 03:00:00 6.7 14 Sur 49 Sur 0 -- -- 66
2020-02-29 02:00:00 7.6 22 Sur 48 Sudoeste 0 -- -- 46
2020-02-29 01:00:00 8.1 19 Sur 49 Sudoeste 0 -- -- 42
2020-02-29 00:00:00 8.6 20 Sudoeste 45 Sur 0 -- -- 40